createdAt,value
2017-12-05T00:00:05.818Z,7.60
2017-12-05T00:02:31.850Z,7.60
2017-12-05T00:04:58.618Z,7.70
2017-12-05T00:07:24.665Z,7.70
2017-12-05T00:09:50.716Z,7.80
2017-12-05T00:12:16.813Z,7.80
2017-12-05T00:14:43.705Z,7.70
2017-12-05T00:17:10.088Z,7.70
2017-12-05T00:19:36.162Z,7.70
2017-12-05T00:22:02.205Z,7.70
2017-12-05T00:24:28.246Z,7.50
2017-12-05T00:26:54.329Z,7.60
2017-12-05T00:29:20.513Z,7.70
2017-12-05T00:31:46.555Z,7.60
2017-12-05T00:34:12.589Z,7.70
2017-12-05T00:36:38.638Z,7.80
2017-12-05T00:39:04.688Z,7.80
2017-12-05T00:41:30.763Z,7.70
2017-12-05T00:43:56.833Z,7.60
2017-12-05T00:46:22.866Z,7.70
2017-12-05T00:48:49.575Z,7.70
2017-12-05T00:51:15.626Z,7.80
2017-12-05T00:53:41.678Z,7.80
2017-12-05T00:56:07.794Z,7.90
2017-12-05T00:58:33.856Z,7.70
2017-12-05T01:01:01.837Z,7.70
2017-12-05T01:03:28.616Z,7.70
2017-12-05T01:05:54.962Z,7.70
2017-12-05T01:08:21.022Z,7.70
2017-12-05T01:10:47.061Z,7.80
2017-12-05T01:13:13.089Z,7.40
2017-12-05T01:15:39.149Z,7.70
2017-12-05T01:18:05.198Z,7.60
2017-12-05T01:20:31.242Z,7.70
2017-12-05T01:22:57.300Z,7.80
2017-12-05T01:25:23.366Z,7.70
2017-12-05T01:27:49.414Z,7.70
2017-12-05T01:30:15.445Z,8.00
2017-12-05T01:32:41.477Z,8.00
2017-12-05T01:35:07.513Z,7.50
2017-12-05T01:37:33.586Z,7.50
2017-12-05T01:39:59.610Z,7.60
2017-12-05T01:42:25.646Z,7.70
2017-12-05T01:44:51.682Z,7.70
2017-12-05T01:47:17.732Z,8.00
2017-12-05T01:49:43.770Z,7.50
2017-12-05T01:52:09.806Z,7.40
2017-12-05T01:54:35.886Z,7.50
2017-12-05T01:57:06.787Z,7.50
2017-12-05T01:59:32.809Z,7.50
2017-12-05T02:01:58.845Z,7.50
2017-12-05T02:04:24.896Z,7.50
2017-12-05T02:06:50.949Z,7.40
2017-12-05T02:09:17.789Z,7.30
2017-12-05T02:11:43.822Z,7.30
2017-12-05T02:14:09.887Z,7.20
2017-12-05T02:16:36.714Z,7.20
2017-12-05T02:19:02.749Z,7.20
2017-12-05T02:21:28.792Z,7.20
2017-12-05T02:23:54.825Z,7.30
2017-12-05T02:26:20.890Z,7.10
2017-12-05T02:28:46.916Z,7.20
2017-12-05T02:31:13.673Z,7.20
2017-12-05T02:33:40.453Z,7.20
2017-12-05T02:36:06.525Z,7.20
2017-12-05T02:38:32.654Z,7.20
2017-12-05T02:41:08.897Z,7.20
2017-12-05T02:43:34.949Z,7.30
2017-12-05T02:46:00.996Z,7.20
2017-12-05T02:48:27.038Z,7.20
2017-12-05T02:50:53.061Z,7.10
2017-12-05T02:53:19.085Z,7.00
2017-12-05T02:55:45.115Z,7.00
2017-12-05T02:58:11.162Z,7.50
2017-12-05T03:00:37.281Z,7.00
2017-12-05T03:03:03.306Z,7.40
2017-12-05T03:05:30.091Z,7.00
2017-12-05T03:07:56.142Z,7.00
2017-12-05T03:10:22.172Z,6.90
2017-12-05T03:12:48.206Z,7.00
2017-12-05T03:15:14.253Z,7.00
2017-12-05T03:17:40.338Z,7.00
2017-12-05T03:20:06.397Z,7.00
2017-12-05T03:22:32.473Z,7.10
2017-12-05T03:24:58.518Z,7.20
2017-12-05T03:27:24.561Z,7.00
2017-12-05T03:29:50.602Z,6.90
2017-12-05T03:32:16.636Z,6.90
2017-12-05T03:34:42.675Z,7.00
2017-12-05T03:37:08.849Z,7.00
2017-12-05T03:39:35.134Z,6.90
2017-12-05T03:42:03.248Z,6.80
2017-12-05T03:44:29.498Z,6.90
2017-12-05T03:46:56.488Z,6.90
2017-12-05T03:49:22.711Z,6.80
2017-12-05T03:51:49.679Z,6.90
2017-12-05T03:54:15.926Z,6.80
2017-12-05T03:56:42.174Z,6.80
2017-12-05T03:59:08.417Z,6.90
2017-12-05T04:01:34.637Z,6.80
2017-12-05T04:04:01.650Z,6.90
2017-12-05T04:06:27.946Z,6.90
2017-12-05T04:08:54.203Z,7.00
2017-12-05T04:11:20.437Z,7.10
2017-12-05T04:13:46.677Z,7.10
2017-12-05T04:16:12.931Z,7.20
2017-12-05T04:18:39.181Z,7.20
2017-12-05T04:21:05.505Z,7.20
2017-12-05T04:23:32.500Z,7.20
2017-12-05T04:25:58.701Z,7.20
2017-12-05T04:28:26.043Z,7.20
2017-12-05T04:30:53.040Z,7.20
2017-12-05T04:33:19.280Z,7.20
2017-12-05T04:35:45.540Z,7.20
2017-12-05T04:38:11.793Z,7.20
2017-12-05T04:40:38.109Z,7.20
2017-12-05T04:43:04.355Z,7.20
2017-12-05T04:45:30.609Z,7.00
2017-12-05T04:47:56.863Z,7.00
2017-12-05T04:50:23.127Z,7.10
2017-12-05T04:52:50.124Z,7.00
2017-12-05T04:55:17.129Z,6.80
2017-12-05T04:57:43.386Z,6.80
2017-12-05T05:00:10.380Z,6.70
2017-12-05T05:02:36.688Z,6.70
2017-12-05T05:05:02.987Z,6.80
2017-12-05T05:07:29.198Z,6.70
2017-12-05T05:09:56.186Z,6.70
2017-12-05T05:12:22.774Z,6.70
2017-12-05T05:14:49.108Z,6.80
2017-12-05T05:17:15.375Z,6.80
2017-12-05T05:19:42.403Z,6.70
2017-12-05T05:22:08.661Z,6.70
2017-12-05T05:24:34.890Z,6.80
2017-12-05T05:27:01.118Z,6.80
2017-12-05T05:29:28.113Z,6.70
2017-12-05T05:31:54.347Z,6.70
2017-12-05T05:34:21.328Z,6.70
2017-12-05T05:36:48.270Z,6.70
2017-12-05T05:39:14.481Z,6.60
2017-12-05T05:41:40.729Z,6.60
2017-12-05T05:44:06.994Z,6.60
2017-12-05T05:46:33.305Z,6.60
2017-12-05T05:48:59.577Z,6.70
2017-12-05T05:51:26.950Z,6.80
2017-12-05T05:53:53.954Z,6.70
2017-12-05T05:56:20.629Z,6.70
2017-12-05T05:58:46.935Z,6.70
2017-12-05T06:01:13.175Z,6.60
2017-12-05T06:03:39.401Z,6.60
2017-12-05T06:06:05.644Z,6.70
2017-12-05T06:08:32.032Z,6.70
2017-12-05T06:10:58.280Z,6.60
2017-12-05T06:13:24.505Z,6.80
2017-12-05T06:15:53.120Z,6.70
2017-12-05T06:18:19.148Z,6.70
2017-12-05T06:20:45.393Z,6.70
2017-12-05T06:23:11.623Z,6.50
2017-12-05T06:25:37.970Z,6.70
2017-12-05T06:28:04.209Z,6.90
2017-12-05T06:30:30.482Z,6.60
2017-12-05T06:32:57.533Z,6.70
2017-12-05T06:35:23.874Z,6.70
2017-12-05T06:37:50.118Z,6.60
2017-12-05T06:40:16.342Z,6.70
2017-12-05T06:42:43.354Z,6.70
2017-12-05T06:45:11.305Z,6.70
2017-12-05T06:47:38.173Z,6.70
2017-12-05T06:50:04.947Z,6.70
2017-12-05T06:52:31.008Z,6.70
2017-12-05T06:54:57.086Z,6.70
2017-12-05T06:57:23.325Z,6.70
2017-12-05T06:59:49.836Z,6.70
2017-12-05T07:02:16.058Z,6.70
2017-12-05T07:04:43.321Z,6.70
2017-12-05T07:07:09.577Z,6.80
2017-12-05T07:09:35.870Z,6.80
2017-12-05T07:12:02.846Z,6.90
2017-12-05T07:14:29.115Z,6.90
2017-12-05T07:16:56.925Z,7.00
2017-12-05T07:19:23.198Z,6.90
2017-12-05T07:21:50.266Z,6.90
2017-12-05T07:24:16.549Z,6.90
2017-12-05T07:26:42.787Z,7.00
2017-12-05T07:29:09.000Z,6.60
2017-12-05T07:31:35.253Z,6.80
2017-12-05T07:34:01.509Z,6.80
2017-12-05T07:36:27.755Z,6.70
2017-12-05T07:38:54.799Z,6.90
2017-12-05T07:41:21.062Z,6.90
2017-12-05T07:43:47.314Z,7.00
2017-12-05T07:46:13.557Z,7.00
2017-12-05T07:48:39.809Z,7.00
2017-12-05T07:51:06.081Z,6.90
2017-12-05T07:53:33.061Z,7.10
2017-12-05T07:55:59.292Z,7.10
2017-12-05T07:58:25.533Z,7.00
2017-12-05T08:00:56.195Z,7.10
2017-12-05T08:03:22.429Z,7.20
2017-12-05T08:05:48.685Z,7.10
2017-12-05T08:08:14.913Z,7.10
2017-12-05T08:10:41.142Z,7.00
2017-12-05T08:13:07.398Z,7.00
2017-12-05T08:15:34.441Z,7.00
2017-12-05T08:18:03.842Z,7.00
2017-12-05T08:20:30.130Z,6.90
2017-12-05T08:22:56.402Z,7.10
2017-12-05T08:25:22.656Z,7.20
2017-12-05T08:27:48.901Z,7.20
2017-12-05T08:30:15.908Z,7.20
2017-12-05T08:32:43.860Z,7.20
2017-12-05T08:35:13.265Z,7.20
2017-12-05T08:37:39.457Z,7.20
2017-12-05T08:40:05.503Z,7.10
2017-12-05T08:42:31.541Z,7.10
2017-12-05T08:44:57.617Z,7.20
2017-12-05T08:47:23.658Z,7.10
2017-12-05T08:49:54.730Z,7.00
2017-12-05T08:52:21.736Z,7.10
2017-12-05T08:54:47.976Z,7.20
2017-12-05T08:57:14.227Z,7.10
2017-12-05T08:59:40.473Z,7.20
2017-12-05T09:02:07.473Z,7.20
2017-12-05T09:04:39.359Z,7.30
2017-12-05T09:07:06.245Z,7.40
2017-12-05T09:09:32.296Z,7.40
2017-12-05T09:11:58.325Z,7.40
2017-12-05T09:14:24.349Z,7.30
2017-12-05T09:16:50.391Z,7.20
2017-12-05T09:19:16.433Z,7.20
2017-12-05T09:21:46.098Z,7.00
2017-12-05T09:24:12.146Z,7.10
2017-12-05T09:26:38.186Z,7.30
2017-12-05T09:29:05.722Z,7.30
2017-12-05T09:31:31.758Z,7.20
2017-12-05T09:33:57.856Z,7.20
2017-12-05T09:36:23.861Z,7.30
2017-12-05T09:38:49.997Z,7.30
2017-12-05T09:41:34.466Z,7.30
2017-12-05T09:44:00.718Z,7.30
2017-12-05T09:46:27.182Z,7.20
2017-12-05T09:48:53.442Z,7.30
2017-12-05T09:51:24.697Z,7.30
2017-12-05T09:53:51.057Z,7.20
2017-12-05T09:56:18.065Z,7.20
2017-12-05T09:58:44.290Z,7.10
2017-12-05T10:01:10.526Z,7.10
2017-12-05T10:03:36.771Z,7.20
2017-12-05T10:06:03.029Z,7.30
2017-12-05T10:08:33.585Z,7.30
2017-12-05T10:10:59.841Z,7.40
2017-12-05T10:13:26.119Z,7.40
2017-12-05T10:15:53.167Z,7.40
2017-12-05T10:18:20.145Z,7.40
2017-12-05T10:20:46.354Z,7.40
2017-12-05T10:23:12.598Z,7.50
2017-12-05T10:25:42.929Z,7.20
2017-12-05T10:28:09.192Z,7.60
2017-12-05T10:30:35.476Z,7.70
2017-12-05T10:33:01.764Z,7.50
2017-12-05T10:35:28.014Z,7.50
2017-12-05T10:37:54.263Z,7.50
2017-12-05T10:40:20.546Z,7.60
2017-12-05T10:42:48.724Z,7.70
2017-12-05T10:45:15.017Z,7.60
2017-12-05T10:47:42.074Z,7.70
2017-12-05T10:50:08.366Z,7.70
2017-12-05T10:52:34.634Z,7.60
2017-12-05T10:55:00.873Z,7.50
2017-12-05T10:57:27.119Z,7.50
2017-12-05T10:59:53.349Z,7.60
2017-12-05T11:02:23.280Z,7.60
2017-12-05T11:04:49.590Z,7.60
2017-12-05T11:07:16.763Z,7.70
2017-12-05T11:09:43.970Z,7.70
2017-12-05T11:12:10.206Z,7.60
2017-12-05T11:14:36.453Z,7.60
2017-12-05T11:17:07.910Z,7.60
2017-12-05T11:19:34.186Z,7.70
2017-12-05T11:22:00.430Z,7.70
2017-12-05T11:24:26.677Z,7.70
2017-12-05T11:26:52.914Z,7.60
2017-12-05T11:29:19.166Z,7.60
2017-12-05T11:31:45.395Z,7.70
2017-12-05T11:34:11.628Z,7.70
2017-12-05T11:36:39.431Z,7.80
2017-12-05T11:39:06.515Z,7.90
2017-12-05T11:41:33.522Z,7.90
2017-12-05T11:43:59.783Z,7.80
2017-12-05T11:46:26.046Z,7.90
2017-12-05T11:48:53.069Z,7.70
2017-12-05T11:51:24.159Z,7.70
2017-12-05T11:53:50.469Z,7.90
2017-12-05T11:56:16.748Z,7.90
2017-12-05T11:58:43.046Z,8.00
2017-12-05T12:01:09.306Z,8.10
2017-12-05T12:03:35.545Z,8.00
2017-12-05T12:06:01.799Z,7.80
2017-12-05T12:08:30.710Z,7.90
2017-12-05T12:10:56.974Z,7.90
2017-12-05T12:13:23.978Z,7.80
2017-12-05T12:15:50.233Z,7.80
2017-12-05T12:18:16.490Z,7.70
2017-12-05T12:20:42.750Z,7.80
2017-12-05T12:23:09.005Z,7.80
2017-12-05T12:25:38.830Z,8.00
2017-12-05T12:28:05.971Z,8.00
2017-12-05T12:30:32.237Z,8.00
2017-12-05T12:32:58.460Z,8.10
2017-12-05T12:35:24.718Z,8.00
2017-12-05T12:37:50.962Z,8.00
2017-12-05T12:40:17.222Z,8.10
2017-12-05T12:42:47.255Z,8.40
2017-12-05T12:45:14.266Z,8.10
2017-12-05T12:47:40.530Z,8.10
2017-12-05T12:50:06.806Z,8.10
2017-12-05T12:52:33.798Z,8.00
2017-12-05T12:55:00.058Z,8.00
2017-12-05T12:57:26.374Z,8.00
2017-12-05T12:59:58.911Z,8.00
2017-12-05T13:02:25.137Z,8.30
2017-12-05T13:04:51.390Z,8.10
2017-12-05T13:07:17.695Z,8.00
2017-12-05T13:09:44.057Z,8.00
2017-12-05T13:12:10.322Z,8.00
2017-12-05T13:14:36.639Z,7.90
2017-12-05T13:17:08.066Z,8.10
2017-12-05T13:19:34.322Z,8.10
2017-12-05T13:22:01.277Z,7.90
2017-12-05T13:24:28.325Z,8.00
2017-12-05T13:26:55.318Z,8.00
2017-12-05T13:29:21.628Z,8.00
2017-12-05T13:31:49.706Z,8.10
2017-12-05T13:34:17.784Z,8.10
2017-12-05T13:36:44.023Z,8.00
2017-12-05T13:39:10.262Z,8.00
2017-12-05T13:41:37.266Z,8.00
2017-12-05T13:44:03.574Z,8.00
2017-12-05T13:46:30.594Z,8.00
2017-12-05T13:49:00.102Z,8.00
2017-12-05T13:51:26.362Z,8.10
2017-12-05T13:53:52.674Z,8.10
2017-12-05T13:56:18.946Z,8.10
2017-12-05T13:58:45.189Z,8.10
2017-12-05T14:01:11.452Z,8.20
2017-12-05T14:03:37.807Z,8.20
2017-12-05T14:06:06.471Z,8.40
2017-12-05T14:08:32.719Z,8.20
2017-12-05T14:10:59.005Z,8.20
2017-12-05T14:13:25.241Z,8.30
2017-12-05T14:15:51.505Z,8.10
2017-12-05T14:18:18.509Z,8.00
2017-12-05T14:20:44.772Z,8.00
2017-12-05T14:23:12.928Z,8.10
2017-12-05T14:25:39.226Z,8.10
2017-12-05T14:28:05.471Z,8.10
2017-12-05T14:30:32.507Z,8.10
2017-12-05T14:32:58.726Z,8.10
2017-12-05T14:35:24.967Z,8.10
2017-12-05T14:37:51.241Z,8.10
2017-12-05T14:40:17.497Z,8.00
2017-12-05T14:42:46.922Z,8.00
2017-12-05T14:45:13.205Z,7.90
2017-12-05T14:47:40.200Z,8.20
2017-12-05T14:50:06.471Z,8.10
2017-12-05T14:52:33.498Z,8.10
2017-12-05T14:54:59.766Z,8.10
2017-12-05T14:57:26.026Z,8.10
2017-12-05T14:59:52.274Z,8.00
2017-12-05T15:02:18.547Z,8.10
2017-12-05T15:04:44.805Z,8.10
2017-12-05T15:07:11.160Z,8.10
2017-12-05T15:09:37.405Z,8.50
2017-12-05T15:12:03.718Z,8.10
2017-12-05T15:14:30.574Z,8.20
2017-12-05T15:16:57.618Z,8.20
2017-12-05T15:19:24.618Z,8.20
2017-12-05T15:21:50.886Z,8.20
2017-12-05T15:24:17.153Z,8.20
2017-12-05T15:26:43.490Z,8.10
2017-12-05T15:29:09.767Z,8.10
2017-12-05T15:31:36.215Z,8.60
2017-12-05T15:34:02.517Z,8.20
2017-12-05T15:36:28.794Z,8.30
2017-12-05T15:38:55.047Z,8.10
2017-12-05T15:41:21.286Z,8.10
2017-12-05T15:43:48.242Z,8.20
2017-12-05T15:46:14.537Z,8.10
2017-12-05T15:48:40.911Z,8.10
2017-12-05T15:51:07.306Z,8.00
2017-12-05T15:53:34.385Z,8.10
2017-12-05T15:56:00.738Z,8.10
2017-12-05T15:58:26.999Z,8.20
2017-12-05T16:00:53.270Z,8.20
2017-12-05T16:03:19.531Z,8.30
2017-12-05T16:05:45.925Z,8.20
2017-12-05T16:08:12.946Z,8.10
2017-12-05T16:10:39.238Z,8.10
2017-12-05T16:13:06.201Z,8.20
2017-12-05T16:15:35.284Z,8.10
2017-12-05T16:18:01.534Z,8.20
2017-12-05T16:20:28.538Z,8.00
2017-12-05T16:22:54.810Z,8.10
2017-12-05T16:25:21.049Z,8.10
2017-12-05T16:27:48.121Z,8.10
2017-12-05T16:30:15.113Z,8.10
2017-12-05T16:32:41.401Z,8.10
2017-12-05T16:35:07.649Z,8.10
2017-12-05T16:37:33.921Z,8.20
2017-12-05T16:40:00.809Z,8.30
2017-12-05T16:42:27.045Z,8.10
2017-12-05T16:44:53.299Z,8.00
2017-12-05T16:47:19.558Z,8.10
2017-12-05T16:49:45.813Z,8.00
2017-12-05T16:52:12.073Z,8.00
2017-12-05T16:54:38.467Z,8.00
2017-12-05T16:57:05.365Z,8.20
2017-12-05T16:59:32.368Z,8.20
2017-12-05T17:01:58.703Z,8.50
2017-12-05T17:04:25.006Z,8.20
2017-12-05T17:06:51.378Z,8.20
2017-12-05T17:09:18.439Z,8.00
2017-12-05T17:11:44.754Z,8.00
2017-12-05T17:14:11.853Z,8.00
2017-12-05T17:16:38.159Z,8.00
2017-12-05T17:19:04.514Z,7.90
2017-12-05T17:21:30.753Z,7.80
2017-12-05T17:23:56.982Z,7.90
2017-12-05T17:26:23.258Z,7.80
2017-12-05T17:28:49.535Z,8.00
2017-12-05T17:31:15.818Z,8.00
2017-12-05T17:33:42.054Z,7.90
2017-12-05T17:36:09.094Z,8.00
2017-12-05T17:38:37.906Z,8.00
2017-12-05T17:41:04.615Z,7.90
2017-12-05T17:43:31.575Z,7.90
2017-12-05T17:45:57.846Z,7.90
2017-12-05T17:48:24.890Z,8.00
2017-12-05T17:50:51.162Z,8.00
2017-12-05T17:53:18.141Z,8.00
2017-12-05T17:55:47.797Z,8.00
2017-12-05T17:58:14.110Z,8.00
2017-12-05T18:00:40.397Z,8.00
2017-12-05T18:03:07.386Z,7.90
2017-12-05T18:05:33.673Z,7.90
2017-12-05T18:07:59.922Z,7.90
2017-12-05T18:10:26.934Z,8.10
2017-12-05T18:12:56.251Z,8.10
2017-12-05T18:15:22.490Z,8.10
2017-12-05T18:17:48.751Z,8.10
2017-12-05T18:20:15.006Z,8.10
2017-12-05T18:22:41.238Z,7.90
2017-12-05T18:25:07.490Z,8.00
2017-12-05T18:27:33.729Z,8.00
2017-12-05T18:29:59.975Z,8.10
2017-12-05T18:32:31.148Z,8.00
2017-12-05T18:34:57.406Z,8.00
2017-12-05T18:37:24.398Z,8.10
2017-12-05T18:39:51.386Z,8.10
2017-12-05T18:42:17.649Z,8.10
2017-12-05T18:44:43.874Z,8.10
2017-12-05T18:47:10.122Z,8.00
2017-12-05T18:49:39.962Z,8.30
2017-12-05T18:52:06.410Z,7.90
2017-12-05T18:54:32.650Z,8.00
2017-12-05T18:56:58.902Z,8.00
2017-12-05T18:59:25.147Z,8.00
2017-12-05T19:01:51.398Z,8.00
2017-12-05T19:04:17.654Z,8.00
2017-12-05T19:06:44.645Z,8.00
2017-12-05T19:09:12.616Z,7.90
2017-12-05T19:11:38.921Z,8.00
2017-12-05T19:14:05.193Z,7.80
2017-12-05T19:16:31.455Z,7.80
2017-12-05T19:18:58.431Z,7.90
2017-12-05T19:21:24.722Z,7.90
2017-12-05T19:23:51.721Z,7.90
2017-12-05T19:26:17.988Z,7.90
2017-12-05T19:28:47.585Z,7.90
2017-12-05T19:31:13.991Z,8.00
2017-12-05T19:33:40.335Z,7.90
2017-12-05T19:36:06.555Z,7.90
2017-12-05T19:38:33.586Z,8.00
2017-12-05T19:40:59.897Z,8.00
2017-12-05T19:43:26.151Z,8.40
2017-12-05T19:45:58.034Z,7.90
2017-12-05T19:48:24.327Z,7.90
2017-12-05T19:50:51.376Z,8.00
2017-12-05T19:53:17.630Z,8.00
2017-12-05T19:55:43.878Z,8.00
2017-12-05T19:58:10.918Z,7.90
2017-12-05T20:00:37.150Z,7.90
2017-12-05T20:03:10.028Z,8.00
2017-12-05T20:05:37.034Z,8.00
2017-12-05T20:08:03.274Z,7.80
2017-12-05T20:10:29.500Z,8.00
2017-12-05T20:12:55.802Z,8.00
2017-12-05T20:15:22.045Z,8.10
2017-12-05T20:17:49.029Z,8.10
2017-12-05T20:20:18.161Z,8.10
2017-12-05T20:22:44.802Z,8.10
2017-12-05T20:25:11.070Z,8.10
2017-12-05T20:27:38.047Z,8.00
2017-12-05T20:30:04.281Z,7.90
2017-12-05T20:32:30.534Z,8.00
2017-12-05T20:34:56.753Z,8.00
2017-12-05T20:37:29.111Z,8.10
2017-12-05T20:39:55.337Z,8.00
2017-12-05T20:42:21.582Z,8.20
2017-12-05T20:44:47.861Z,8.10
2017-12-05T20:47:14.874Z,7.90
2017-12-05T20:49:41.157Z,8.30
2017-12-05T20:52:07.414Z,8.00
2017-12-05T20:54:34.417Z,8.00
2017-12-05T20:57:03.611Z,8.00
2017-12-05T20:59:29.910Z,8.10
2017-12-05T21:01:56.158Z,8.40
2017-12-05T21:04:23.143Z,8.10
2017-12-05T21:06:49.361Z,8.00
2017-12-05T21:09:15.595Z,8.10
2017-12-05T21:11:41.841Z,8.10
2017-12-05T21:14:08.886Z,8.10
2017-12-05T21:16:35.874Z,8.00
2017-12-05T21:19:02.201Z,8.00
2017-12-05T21:21:29.254Z,8.00
2017-12-05T21:23:55.519Z,8.00
2017-12-05T21:26:21.764Z,8.10
2017-12-05T21:28:48.737Z,8.10
2017-12-05T21:31:18.254Z,8.10
2017-12-05T21:33:45.228Z,8.10
2017-12-05T21:36:11.479Z,8.10
2017-12-05T21:38:38.478Z,8.00
2017-12-05T21:41:05.530Z,8.00
2017-12-05T21:43:31.748Z,8.00
2017-12-05T21:45:58.821Z,8.20
2017-12-05T21:48:25.048Z,8.10
2017-12-05T21:50:51.550Z,8.20
2017-12-05T21:53:19.589Z,8.10
2017-12-05T21:55:45.962Z,8.00
2017-12-05T21:58:12.183Z,8.10
2017-12-05T22:00:38.573Z,8.00
2017-12-05T22:03:05.842Z,8.00
2017-12-05T22:05:32.110Z,8.00
2017-12-05T22:07:58.381Z,7.90
2017-12-05T22:10:25.389Z,8.00
2017-12-05T22:12:51.630Z,7.90
2017-12-05T22:15:17.889Z,7.80
2017-12-05T22:17:44.151Z,7.80
2017-12-05T22:20:10.386Z,7.90
2017-12-05T22:22:37.358Z,7.80
2017-12-05T22:25:03.685Z,7.40
2017-12-05T22:27:29.946Z,7.80
2017-12-05T22:29:56.177Z,7.90
2017-12-05T22:32:23.185Z,7.90
2017-12-05T22:34:50.150Z,7.90
2017-12-05T22:37:16.377Z,7.90
2017-12-05T22:39:42.655Z,8.00
2017-12-05T22:42:08.930Z,8.00
2017-12-05T22:44:35.927Z,7.90
2017-12-05T22:47:02.299Z,7.90
2017-12-05T22:49:28.528Z,8.10
2017-12-05T22:51:54.781Z,8.20
2017-12-05T22:54:22.488Z,8.20
2017-12-05T22:56:48.835Z,8.10
2017-12-05T22:59:15.079Z,8.00
2017-12-05T23:01:42.066Z,8.20
2017-12-05T23:04:08.301Z,8.10
2017-12-05T23:06:34.691Z,8.10
2017-12-05T23:09:00.940Z,8.10
2017-12-05T23:11:27.163Z,8.10
2017-12-05T23:13:53.491Z,8.00
2017-12-05T23:16:19.765Z,8.10
2017-12-05T23:18:47.037Z,8.10
2017-12-05T23:21:13.266Z,8.10
2017-12-05T23:23:39.522Z,8.10
2017-12-05T23:26:06.504Z,8.00
2017-12-05T23:28:32.770Z,8.00
2017-12-05T23:30:58.997Z,7.90
2017-12-05T23:33:25.944Z,8.00
2017-12-05T23:35:52.139Z,8.00
2017-12-05T23:38:18.336Z,8.00
2017-12-05T23:40:45.287Z,8.00
2017-12-05T23:43:12.362Z,8.00
2017-12-05T23:45:38.563Z,7.90
2017-12-05T23:48:06.030Z,7.80
2017-12-05T23:50:32.262Z,7.90
2017-12-05T23:52:58.486Z,7.90
2017-12-05T23:55:24.710Z,7.90
2017-12-05T23:57:50.941Z,8.30
